sensor_id;sensor_type;location;lat;lon;timestamp;P1;durP1;ratioP1;P2;durP2;ratioP2
26774;SDS011;14362;51.902;7.626;2023-03-26T00:02:36;8.10;;;3.80;;
26774;SDS011;14362;51.902;7.626;2023-03-26T00:06:38;15.30;;;3.85;;
26774;SDS011;14362;51.902;7.626;2023-03-26T00:10:42;13.30;;;4.13;;
26774;SDS011;14362;51.902;7.626;2023-03-26T00:14:44;16.13;;;4.28;;
26774;SDS011;14362;51.902;7.626;2023-03-26T00:18:45;13.93;;;4.18;;
26774;SDS011;14362;51.902;7.626;2023-03-26T00:22:48;12.82;;;3.97;;
26774;SDS011;14362;51.902;7.626;2023-03-26T00:26:51;11.20;;;3.75;;
26774;SDS011;14362;51.902;7.626;2023-03-26T00:30:56;10.93;;;4.07;;
26774;SDS011;14362;51.902;7.626;2023-03-26T00:34:59;12.68;;;4.30;;
26774;SDS011;14362;51.902;7.626;2023-03-26T00:39:01;11.30;;;3.80;;
26774;SDS011;14362;51.902;7.626;2023-03-26T00:43:05;13.70;;;4.07;;
26774;SDS011;14362;51.902;7.626;2023-03-26T00:47:17;7.53;;;3.80;;
26774;SDS011;14362;51.902;7.626;2023-03-26T00:51:19;8.15;;;3.10;;
26774;SDS011;14362;51.902;7.626;2023-03-26T00:55:21;7.55;;;3.33;;
26774;SDS011;14362;51.902;7.626;2023-03-26T00:59:24;10.32;;;3.88;;
26774;SDS011;14362;51.902;7.626;2023-03-26T01:03:30;6.32;;;3.45;;
26774;SDS011;14362;51.902;7.626;2023-03-26T01:11:36;11.15;;;3.35;;
26774;SDS011;14362;51.902;7.626;2023-03-26T01:15:38;11.48;;;3.25;;
26774;SDS011;14362;51.902;7.626;2023-03-26T01:19:42;11.60;;;3.83;;
26774;SDS011;14362;51.902;7.626;2023-03-26T01:23:55;18.00;;;3.28;;
26774;SDS011;14362;51.902;7.626;2023-03-26T01:27:58;9.82;;;3.15;;
26774;SDS011;14362;51.902;7.626;2023-03-26T01:32:02;9.63;;;3.40;;
26774;SDS011;14362;51.902;7.626;2023-03-26T01:36:14;6.38;;;2.83;;
26774;SDS011;14362;51.902;7.626;2023-03-26T01:40:22;11.48;;;3.05;;
26774;SDS011;14362;51.902;7.626;2023-03-26T01:44:29;7.53;;;2.88;;
26774;SDS011;14362;51.902;7.626;2023-03-26T01:48:39;14.07;;;3.25;;
26774;SDS011;14362;51.902;7.626;2023-03-26T01:52:41;14.38;;;3.80;;
26774;SDS011;14362;51.902;7.626;2023-03-26T01:56:49;14.48;;;4.60;;
26774;SDS011;14362;51.902;7.626;2023-03-26T02:01:02;13.23;;;3.72;;
26774;SDS011;14362;51.902;7.626;2023-03-26T02:05:14;20.92;;;5.18;;
26774;SDS011;14362;51.902;7.626;2023-03-26T02:09:21;13.00;;;4.10;;
26774;SDS011;14362;51.902;7.626;2023-03-26T02:13:30;21.08;;;5.38;;
26774;SDS011;14362;51.902;7.626;2023-03-26T02:17:32;12.07;;;4.78;;
26774;SDS011;14362;51.902;7.626;2023-03-26T02:21:34;14.93;;;4.85;;
26774;SDS011;14362;51.902;7.626;2023-03-26T02:25:35;18.17;;;6.13;;
26774;SDS011;14362;51.902;7.626;2023-03-26T02:29:40;16.92;;;5.65;;
26774;SDS011;14362;51.902;7.626;2023-03-26T02:33:41;18.08;;;6.72;;
26774;SDS011;14362;51.902;7.626;2023-03-26T02:37:43;17.15;;;6.40;;
26774;SDS011;14362;51.902;7.626;2023-03-26T02:41:45;13.18;;;5.70;;
26774;SDS011;14362;51.902;7.626;2023-03-26T02:45:48;18.35;;;6.68;;
26774;SDS011;14362;51.902;7.626;2023-03-26T02:49:50;19.92;;;6.05;;
26774;SDS011;14362;51.902;7.626;2023-03-26T02:53:51;28.48;;;7.38;;
26774;SDS011;14362;51.902;7.626;2023-03-26T02:57:53;19.70;;;6.00;;
26774;SDS011;14362;51.902;7.626;2023-03-26T03:01:56;21.23;;;6.22;;
26774;SDS011;14362;51.902;7.626;2023-03-26T03:05:58;21.95;;;6.53;;
26774;SDS011;14362;51.902;7.626;2023-03-26T03:09:59;21.33;;;6.60;;
26774;SDS011;14362;51.902;7.626;2023-03-26T03:14:01;27.33;;;7.57;;
26774;SDS011;14362;51.902;7.626;2023-03-26T03:18:05;18.80;;;6.18;;
26774;SDS011;14362;51.902;7.626;2023-03-26T03:22:06;27.92;;;7.13;;
26774;SDS011;14362;51.902;7.626;2023-03-26T03:26:10;26.42;;;6.82;;
26774;SDS011;14362;51.902;7.626;2023-03-26T03:30:14;27.88;;;6.15;;
26774;SDS011;14362;51.902;7.626;2023-03-26T03:34:17;16.67;;;6.07;;
26774;SDS011;14362;51.902;7.626;2023-03-26T03:38:18;23.90;;;6.25;;
26774;SDS011;14362;51.902;7.626;2023-03-26T03:42:20;26.83;;;6.72;;
26774;SDS011;14362;51.902;7.626;2023-03-26T03:46:21;24.95;;;6.30;;
26774;SDS011;14362;51.902;7.626;2023-03-26T03:50:24;29.52;;;7.57;;
26774;SDS011;14362;51.902;7.626;2023-03-26T03:54:25;29.60;;;8.07;;
26774;SDS011;14362;51.902;7.626;2023-03-26T03:58:28;19.70;;;7.28;;
26774;SDS011;14362;51.902;7.626;2023-03-26T04:02:29;33.30;;;7.45;;
26774;SDS011;14362;51.902;7.626;2023-03-26T04:06:34;33.05;;;7.38;;
26774;SDS011;14362;51.902;7.626;2023-03-26T04:10:36;38.33;;;7.45;;
26774;SDS011;14362;51.902;7.626;2023-03-26T04:14:37;33.13;;;7.63;;
26774;SDS011;14362;51.902;7.626;2023-03-26T04:18:39;24.13;;;6.72;;
26774;SDS011;14362;51.902;7.626;2023-03-26T04:22:42;23.73;;;6.88;;
26774;SDS011;14362;51.902;7.626;2023-03-26T04:26:43;23.35;;;7.30;;
26774;SDS011;14362;51.902;7.626;2023-03-26T04:30:47;30.85;;;6.60;;
26774;SDS011;14362;51.902;7.626;2023-03-26T04:34:52;34.60;;;8.45;;
26774;SDS011;14362;51.902;7.626;2023-03-26T04:38:55;32.55;;;8.95;;
26774;SDS011;14362;51.902;7.626;2023-03-26T04:43:02;32.15;;;8.82;;
26774;SDS011;14362;51.902;7.626;2023-03-26T04:47:03;35.90;;;9.25;;
26774;SDS011;14362;51.902;7.626;2023-03-26T04:51:05;36.03;;;9.05;;
26774;SDS011;14362;51.902;7.626;2023-03-26T04:55:13;29.77;;;8.23;;
26774;SDS011;14362;51.902;7.626;2023-03-26T04:59:22;30.38;;;8.75;;
26774;SDS011;14362;51.902;7.626;2023-03-26T05:03:28;25.17;;;8.23;;
26774;SDS011;14362;51.902;7.626;2023-03-26T05:07:31;27.42;;;8.60;;
26774;SDS011;14362;51.902;7.626;2023-03-26T05:11:33;26.55;;;8.10;;
26774;SDS011;14362;51.902;7.626;2023-03-26T05:15:35;27.15;;;8.93;;
26774;SDS011;14362;51.902;7.626;2023-03-26T05:19:36;44.80;;;11.02;;
26774;SDS011;14362;51.902;7.626;2023-03-26T05:23:38;25.98;;;8.13;;
26774;SDS011;14362;51.902;7.626;2023-03-26T05:27:41;28.33;;;9.07;;
26774;SDS011;14362;51.902;7.626;2023-03-26T05:31:43;26.58;;;9.13;;
26774;SDS011;14362;51.902;7.626;2023-03-26T05:35:44;34.03;;;8.93;;
26774;SDS011;14362;51.902;7.626;2023-03-26T05:39:50;35.22;;;9.10;;
26774;SDS011;14362;51.902;7.626;2023-03-26T05:43:54;27.42;;;9.43;;
26774;SDS011;14362;51.902;7.626;2023-03-26T05:47:55;24.10;;;8.73;;
26774;SDS011;14362;51.902;7.626;2023-03-26T05:51:57;22.10;;;8.32;;
26774;SDS011;14362;51.902;7.626;2023-03-26T05:55:58;30.75;;;9.18;;
26774;SDS011;14362;51.902;7.626;2023-03-26T06:00:02;25.50;;;8.82;;
26774;SDS011;14362;51.902;7.626;2023-03-26T06:04:10;31.23;;;8.65;;
26774;SDS011;14362;51.902;7.626;2023-03-26T06:08:12;26.45;;;9.05;;
26774;SDS011;14362;51.902;7.626;2023-03-26T06:12:14;29.15;;;9.70;;
26774;SDS011;14362;51.902;7.626;2023-03-26T06:16:16;34.70;;;9.40;;
26774;SDS011;14362;51.902;7.626;2023-03-26T06:20:18;28.63;;;9.05;;
26774;SDS011;14362;51.902;7.626;2023-03-26T06:24:20;26.33;;;8.05;;
26774;SDS011;14362;51.902;7.626;2023-03-26T06:28:21;22.70;;;8.52;;
26774;SDS011;14362;51.902;7.626;2023-03-26T06:32:24;22.77;;;8.27;;
26774;SDS011;14362;51.902;7.626;2023-03-26T06:36:26;26.92;;;7.97;;
26774;SDS011;14362;51.902;7.626;2023-03-26T06:40:27;16.55;;;7.32;;
26774;SDS011;14362;51.902;7.626;2023-03-26T06:44:29;15.25;;;7.70;;
26774;SDS011;14362;51.902;7.626;2023-03-26T06:48:31;32.33;;;8.30;;
26774;SDS011;14362;51.902;7.626;2023-03-26T06:52:33;22.33;;;7.88;;
26774;SDS011;14362;51.902;7.626;2023-03-26T06:56:34;32.60;;;9.18;;
26774;SDS011;14362;51.902;7.626;2023-03-26T07:00:36;25.52;;;8.73;;
26774;SDS011;14362;51.902;7.626;2023-03-26T07:04:38;25.73;;;8.65;;
26774;SDS011;14362;51.902;7.626;2023-03-26T07:08:40;26.70;;;9.15;;
26774;SDS011;14362;51.902;7.626;2023-03-26T07:12:41;27.77;;;9.88;;
26774;SDS011;14362;51.902;7.626;2023-03-26T07:16:43;35.70;;;9.98;;
26774;SDS011;14362;51.902;7.626;2023-03-26T07:20:46;19.85;;;9.30;;
26774;SDS011;14362;51.902;7.626;2023-03-26T07:24:48;25.48;;;8.82;;
26774;SDS011;14362;51.902;7.626;2023-03-26T07:28:51;28.50;;;7.57;;
26774;SDS011;14362;51.902;7.626;2023-03-26T07:33:00;28.92;;;7.43;;
26774;SDS011;14362;51.902;7.626;2023-03-26T07:37:09;19.02;;;6.68;;
26774;SDS011;14362;51.902;7.626;2023-03-26T07:41:21;23.77;;;7.03;;
26774;SDS011;14362;51.902;7.626;2023-03-26T07:45:29;45.80;;;8.60;;
26774;SDS011;14362;51.902;7.626;2023-03-26T07:49:37;22.70;;;7.68;;
26774;SDS011;14362;51.902;7.626;2023-03-26T07:53:40;24.95;;;7.13;;
26774;SDS011;14362;51.902;7.626;2023-03-26T07:57:43;23.38;;;7.85;;
26774;SDS011;14362;51.902;7.626;2023-03-26T08:01:59;29.38;;;7.85;;
26774;SDS011;14362;51.902;7.626;2023-03-26T08:06:14;24.95;;;7.07;;
26774;SDS011;14362;51.902;7.626;2023-03-26T08:10:24;25.23;;;7.00;;
26774;SDS011;14362;51.902;7.626;2023-03-26T08:14:32;16.75;;;6.75;;
26774;SDS011;14362;51.902;7.626;2023-03-26T08:18:48;25.60;;;7.63;;
26774;SDS011;14362;51.902;7.626;2023-03-26T08:22:57;23.27;;;8.20;;
26774;SDS011;14362;51.902;7.626;2023-03-26T08:27:08;27.80;;;7.22;;
26774;SDS011;14362;51.902;7.626;2023-03-26T08:31:23;19.55;;;6.03;;
26774;SDS011;14362;51.902;7.626;2023-03-26T08:35:32;20.90;;;6.20;;
26774;SDS011;14362;51.902;7.626;2023-03-26T08:39:34;23.52;;;7.63;;
26774;SDS011;14362;51.902;7.626;2023-03-26T08:48:23;22.67;;;6.50;;
26774;SDS011;14362;51.902;7.626;2023-03-26T08:53:08;23.08;;;5.88;;
26774;SDS011;14362;51.902;7.626;2023-03-26T08:57:33;19.45;;;6.72;;
26774;SDS011;14362;51.902;7.626;2023-03-26T09:01:54;24.38;;;7.50;;
26774;SDS011;14362;51.902;7.626;2023-03-26T09:10:49;31.35;;;7.38;;
26774;SDS011;14362;51.902;7.626;2023-03-26T09:28:59;22.33;;;6.25;;
26774;SDS011;14362;51.902;7.626;2023-03-26T09:33:27;18.63;;;6.00;;
26774;SDS011;14362;51.902;7.626;2023-03-26T09:37:37;19.17;;;6.07;;
26774;SDS011;14362;51.902;7.626;2023-03-26T09:41:51;23.67;;;7.05;;
26774;SDS011;14362;51.902;7.626;2023-03-26T09:46:06;27.13;;;6.85;;
26774;SDS011;14362;51.902;7.626;2023-03-26T09:50:26;21.73;;;6.38;;
26774;SDS011;14362;51.902;7.626;2023-03-26T09:59:05;18.30;;;5.97;;
26774;SDS011;14362;51.902;7.626;2023-03-26T10:03:18;16.70;;;6.43;;
26774;SDS011;14362;51.902;7.626;2023-03-26T10:07:36;22.30;;;6.20;;
26774;SDS011;14362;51.902;7.626;2023-03-26T10:11:54;22.13;;;6.50;;
26774;SDS011;14362;51.902;7.626;2023-03-26T10:16:05;18.25;;;6.10;;
26774;SDS011;14362;51.902;7.626;2023-03-26T10:20:25;18.42;;;6.15;;
26774;SDS011;14362;51.902;7.626;2023-03-26T10:24:39;20.83;;;6.53;;
26774;SDS011;14362;51.902;7.626;2023-03-26T10:28:59;20.27;;;6.38;;
26774;SDS011;14362;51.902;7.626;2023-03-26T10:33:13;15.05;;;5.18;;
26774;SDS011;14362;51.902;7.626;2023-03-26T10:37:24;15.63;;;5.05;;
26774;SDS011;14362;51.902;7.626;2023-03-26T10:41:35;15.45;;;5.28;;
26774;SDS011;14362;51.902;7.626;2023-03-26T10:45:51;15.48;;;5.78;;
26774;SDS011;14362;51.902;7.626;2023-03-26T10:50:19;19.30;;;6.20;;
26774;SDS011;14362;51.902;7.626;2023-03-26T10:54:30;18.52;;;5.72;;
26774;SDS011;14362;51.902;7.626;2023-03-26T10:58:37;14.77;;;6.47;;
26774;SDS011;14362;51.902;7.626;2023-03-26T11:02:42;12.98;;;6.75;;
26774;SDS011;14362;51.902;7.626;2023-03-26T11:06:52;17.92;;;7.10;;
26774;SDS011;14362;51.902;7.626;2023-03-26T11:11:03;14.40;;;7.32;;
26774;SDS011;14362;51.902;7.626;2023-03-26T11:15:14;14.43;;;7.60;;
26774;SDS011;14362;51.902;7.626;2023-03-26T11:19:25;16.40;;;6.97;;
26774;SDS011;14362;51.902;7.626;2023-03-26T11:23:33;15.38;;;6.00;;
26774;SDS011;14362;51.902;7.626;2023-03-26T11:27:39;18.42;;;5.80;;
26774;SDS011;14362;51.902;7.626;2023-03-26T11:31:52;11.60;;;4.97;;
26774;SDS011;14362;51.902;7.626;2023-03-26T11:36:02;14.32;;;5.45;;
26774;SDS011;14362;51.902;7.626;2023-03-26T11:40:08;13.38;;;4.30;;
26774;SDS011;14362;51.902;7.626;2023-03-26T11:44:17;8.43;;;3.10;;
26774;SDS011;14362;51.902;7.626;2023-03-26T11:48:22;8.60;;;4.30;;
26774;SDS011;14362;51.902;7.626;2023-03-26T11:52:29;11.90;;;3.85;;
26774;SDS011;14362;51.902;7.626;2023-03-26T11:56:31;7.85;;;2.95;;
26774;SDS011;14362;51.902;7.626;2023-03-26T12:00:36;8.05;;;2.70;;
26774;SDS011;14362;51.902;7.626;2023-03-26T12:04:39;8.57;;;2.70;;
26774;SDS011;14362;51.902;7.626;2023-03-26T12:08:43;7.75;;;2.58;;
26774;SDS011;14362;51.902;7.626;2023-03-26T12:12:45;9.30;;;2.53;;
26774;SDS011;14362;51.902;7.626;2023-03-26T12:17:01;8.38;;;2.70;;
26774;SDS011;14362;51.902;7.626;2023-03-26T12:21:05;8.13;;;2.80;;
26774;SDS011;14362;51.902;7.626;2023-03-26T12:25:14;6.53;;;2.45;;
26774;SDS011;14362;51.902;7.626;2023-03-26T12:29:17;9.48;;;2.80;;
26774;SDS011;14362;51.902;7.626;2023-03-26T12:33:20;6.43;;;2.10;;
26774;SDS011;14362;51.902;7.626;2023-03-26T12:37:33;6.55;;;2.78;;
26774;SDS011;14362;51.902;7.626;2023-03-26T12:41:38;6.93;;;2.30;;
26774;SDS011;14362;51.902;7.626;2023-03-26T12:45:41;10.18;;;2.70;;
26774;SDS011;14362;51.902;7.626;2023-03-26T12:49:43;7.82;;;2.40;;
26774;SDS011;14362;51.902;7.626;2023-03-26T12:58:28;7.80;;;2.53;;
26774;SDS011;14362;51.902;7.626;2023-03-26T13:02:47;5.15;;;2.13;;
26774;SDS011;14362;51.902;7.626;2023-03-26T13:07:11;6.60;;;2.47;;
26774;SDS011;14362;51.902;7.626;2023-03-26T13:11:24;6.45;;;2.05;;
26774;SDS011;14362;51.902;7.626;2023-03-26T13:15:33;6.72;;;2.25;;
26774;SDS011;14362;51.902;7.626;2023-03-26T13:19:38;6.85;;;2.45;;
26774;SDS011;14362;51.902;7.626;2023-03-26T13:23:49;9.75;;;2.70;;
26774;SDS011;14362;51.902;7.626;2023-03-26T13:28:03;5.93;;;2.67;;
26774;SDS011;14362;51.902;7.626;2023-03-26T13:32:17;5.63;;;2.75;;
26774;SDS011;14362;51.902;7.626;2023-03-26T13:36:27;4.93;;;3.45;;
26774;SDS011;14362;51.902;7.626;2023-03-26T13:40:37;9.10;;;2.95;;
26774;SDS011;14362;51.902;7.626;2023-03-26T13:44:48;4.10;;;2.22;;
26774;SDS011;14362;51.902;7.626;2023-03-26T13:49:00;3.03;;;2.58;;
26774;SDS011;14362;51.902;7.626;2023-03-26T13:53:05;6.68;;;2.40;;
26774;SDS011;14362;51.902;7.626;2023-03-26T13:57:13;5.38;;;2.85;;
26774;SDS011;14362;51.902;7.626;2023-03-26T14:01:19;6.10;;;2.85;;
26774;SDS011;14362;51.902;7.626;2023-03-26T14:05:34;6.35;;;2.38;;
26774;SDS011;14362;51.902;7.626;2023-03-26T14:09:43;4.35;;;2.38;;
26774;SDS011;14362;51.902;7.626;2023-03-26T14:13:48;4.10;;;2.53;;
26774;SDS011;14362;51.902;7.626;2023-03-26T14:17:57;5.90;;;2.55;;
26774;SDS011;14362;51.902;7.626;2023-03-26T14:22:11;5.28;;;2.60;;
26774;SDS011;14362;51.902;7.626;2023-03-26T14:26:21;4.55;;;2.25;;
26774;SDS011;14362;51.902;7.626;2023-03-26T14:30:41;2.90;;;2.35;;
26774;SDS011;14362;51.902;7.626;2023-03-26T14:35:01;4.65;;;3.35;;
26774;SDS011;14362;51.902;7.626;2023-03-26T14:39:27;4.95;;;3.60;;
26774;SDS011;14362;51.902;7.626;2023-03-26T14:48:30;6.97;;;4.63;;
26774;SDS011;14362;51.902;7.626;2023-03-26T14:52:50;11.40;;;6.55;;
26774;SDS011;14362;51.902;7.626;2023-03-26T14:57:06;9.90;;;6.25;;
26774;SDS011;14362;51.902;7.626;2023-03-26T15:01:23;12.77;;;6.53;;
26774;SDS011;14362;51.902;7.626;2023-03-26T15:10:41;20.25;;;7.57;;
26774;SDS011;14362;51.902;7.626;2023-03-26T15:20:09;22.65;;;8.10;;
26774;SDS011;14362;51.902;7.626;2023-03-26T15:24:49;27.42;;;10.32;;
26774;SDS011;14362;51.902;7.626;2023-03-26T15:29:15;18.35;;;7.95;;
26774;SDS011;14362;51.902;7.626;2023-03-26T15:34:02;24.15;;;7.78;;
26774;SDS011;14362;51.902;7.626;2023-03-26T15:38:35;15.63;;;8.00;;
26774;SDS011;14362;51.902;7.626;2023-03-26T15:43:01;18.35;;;7.25;;
26774;SDS011;14362;51.902;7.626;2023-03-26T15:51:43;20.60;;;5.95;;
26774;SDS011;14362;51.902;7.626;2023-03-26T15:55:59;11.50;;;5.30;;
26774;SDS011;14362;51.902;7.626;2023-03-26T16:00:17;12.77;;;5.28;;
26774;SDS011;14362;51.902;7.626;2023-03-26T16:04:23;17.92;;;4.65;;
26774;SDS011;14362;51.902;7.626;2023-03-26T16:08:37;15.95;;;4.82;;
26774;SDS011;14362;51.902;7.626;2023-03-26T16:12:52;12.88;;;3.88;;
26774;SDS011;14362;51.902;7.626;2023-03-26T16:17:15;10.13;;;3.60;;
26774;SDS011;14362;51.902;7.626;2023-03-26T16:21:24;8.00;;;3.15;;
26774;SDS011;14362;51.902;7.626;2023-03-26T16:25:53;10.27;;;3.53;;
26774;SDS011;14362;51.902;7.626;2023-03-26T16:30:06;12.25;;;3.10;;
26774;SDS011;14362;51.902;7.626;2023-03-26T16:34:19;11.63;;;3.80;;
26774;SDS011;14362;51.902;7.626;2023-03-26T16:38:26;12.82;;;3.53;;
26774;SDS011;14362;51.902;7.626;2023-03-26T16:42:50;9.75;;;2.88;;
26774;SDS011;14362;51.902;7.626;2023-03-26T16:47:01;13.55;;;3.75;;
26774;SDS011;14362;51.902;7.626;2023-03-26T16:51:12;13.35;;;3.15;;
26774;SDS011;14362;51.902;7.626;2023-03-26T16:55:24;11.77;;;2.85;;
26774;SDS011;14362;51.902;7.626;2023-03-26T16:59:46;11.10;;;3.13;;
26774;SDS011;14362;51.902;7.626;2023-03-26T17:03:57;13.98;;;3.17;;
26774;SDS011;14362;51.902;7.626;2023-03-26T17:08:04;10.90;;;2.53;;
26774;SDS011;14362;51.902;7.626;2023-03-26T17:12:14;14.35;;;2.58;;
26774;SDS011;14362;51.902;7.626;2023-03-26T17:16:24;11.25;;;3.40;;
26774;SDS011;14362;51.902;7.626;2023-03-26T17:20:31;6.57;;;2.65;;
26774;SDS011;14362;51.902;7.626;2023-03-26T17:24:38;15.63;;;2.85;;
26774;SDS011;14362;51.902;7.626;2023-03-26T17:28:58;13.73;;;3.17;;
26774;SDS011;14362;51.902;7.626;2023-03-26T17:33:13;10.63;;;3.45;;
26774;SDS011;14362;51.902;7.626;2023-03-26T17:41:47;10.52;;;2.42;;
26774;SDS011;14362;51.902;7.626;2023-03-26T17:45:54;16.98;;;2.83;;
26774;SDS011;14362;51.902;7.626;2023-03-26T17:49:59;21.27;;;3.22;;
26774;SDS011;14362;51.902;7.626;2023-03-26T17:54:05;9.98;;;2.80;;
26774;SDS011;14362;51.902;7.626;2023-03-26T18:02:36;18.95;;;2.75;;
26774;SDS011;14362;51.902;7.626;2023-03-26T18:06:52;9.55;;;2.13;;
26774;SDS011;14362;51.902;7.626;2023-03-26T18:11:23;10.15;;;2.15;;
26774;SDS011;14362;51.902;7.626;2023-03-26T18:15:38;14.77;;;3.40;;
26774;SDS011;14362;51.902;7.626;2023-03-26T18:19:48;8.07;;;2.58;;
26774;SDS011;14362;51.902;7.626;2023-03-26T18:23:53;11.30;;;2.65;;
26774;SDS011;14362;51.902;7.626;2023-03-26T18:27:55;9.52;;;2.13;;
26774;SDS011;14362;51.902;7.626;2023-03-26T18:31:59;7.75;;;2.58;;
26774;SDS011;14362;51.902;7.626;2023-03-26T18:36:02;11.25;;;2.58;;
26774;SDS011;14362;51.902;7.626;2023-03-26T18:40:08;11.63;;;2.33;;
26774;SDS011;14362;51.902;7.626;2023-03-26T18:44:15;17.05;;;2.83;;
26774;SDS011;14362;51.902;7.626;2023-03-26T18:48:19;9.45;;;1.88;;
26774;SDS011;14362;51.902;7.626;2023-03-26T18:52:22;6.00;;;1.57;;
26774;SDS011;14362;51.902;7.626;2023-03-26T18:56:29;4.82;;;1.70;;
26774;SDS011;14362;51.902;7.626;2023-03-26T19:00:33;11.77;;;2.47;;
26774;SDS011;14362;51.902;7.626;2023-03-26T19:04:35;9.63;;;2.25;;
26774;SDS011;14362;51.902;7.626;2023-03-26T19:08:38;12.60;;;1.90;;
26774;SDS011;14362;51.902;7.626;2023-03-26T19:12:44;8.05;;;2.35;;
26774;SDS011;14362;51.902;7.626;2023-03-26T19:16:46;12.88;;;2.33;;
26774;SDS011;14362;51.902;7.626;2023-03-26T19:20:53;15.52;;;2.38;;
26774;SDS011;14362;51.902;7.626;2023-03-26T19:24:58;8.80;;;1.90;;
26774;SDS011;14362;51.902;7.626;2023-03-26T19:29:02;10.32;;;2.13;;
26774;SDS011;14362;51.902;7.626;2023-03-26T19:33:10;7.40;;;2.28;;
26774;SDS011;14362;51.902;7.626;2023-03-26T19:37:16;13.30;;;2.80;;
26774;SDS011;14362;51.902;7.626;2023-03-26T19:41:19;9.55;;;2.10;;
26774;SDS011;14362;51.902;7.626;2023-03-26T19:45:24;16.38;;;2.88;;
26774;SDS011;14362;51.902;7.626;2023-03-26T19:49:27;12.95;;;2.17;;
26774;SDS011;14362;51.902;7.626;2023-03-26T19:53:31;11.27;;;2.50;;
26774;SDS011;14362;51.902;7.626;2023-03-26T19:57:34;9.35;;;2.28;;
26774;SDS011;14362;51.902;7.626;2023-03-26T20:01:38;7.07;;;2.03;;
26774;SDS011;14362;51.902;7.626;2023-03-26T20:05:39;12.82;;;2.10;;
26774;SDS011;14362;51.902;7.626;2023-03-26T20:09:41;11.65;;;2.13;;
26774;SDS011;14362;51.902;7.626;2023-03-26T20:13:43;11.88;;;2.53;;
26774;SDS011;14362;51.902;7.626;2023-03-26T20:17:46;12.75;;;2.20;;
26774;SDS011;14362;51.902;7.626;2023-03-26T20:21:51;7.22;;;1.95;;
26774;SDS011;14362;51.902;7.626;2023-03-26T20:25:53;10.77;;;1.70;;
26774;SDS011;14362;51.902;7.626;2023-03-26T20:29:55;10.57;;;1.85;;
26774;SDS011;14362;51.902;7.626;2023-03-26T20:33:57;8.40;;;1.98;;
26774;SDS011;14362;51.902;7.626;2023-03-26T20:37:59;9.63;;;3.35;;
26774;SDS011;14362;51.902;7.626;2023-03-26T20:42:00;12.18;;;3.28;;
26774;SDS011;14362;51.902;7.626;2023-03-26T20:46:02;8.02;;;1.90;;
26774;SDS011;14362;51.902;7.626;2023-03-26T20:50:06;8.55;;;2.22;;
26774;SDS011;14362;51.902;7.626;2023-03-26T20:54:10;12.50;;;2.07;;
26774;SDS011;14362;51.902;7.626;2023-03-26T20:58:17;8.90;;;2.03;;
26774;SDS011;14362;51.902;7.626;2023-03-26T21:02:20;9.25;;;1.77;;
26774;SDS011;14362;51.902;7.626;2023-03-26T21:06:23;9.70;;;1.73;;
26774;SDS011;14362;51.902;7.626;2023-03-26T21:10:25;14.70;;;1.92;;
26774;SDS011;14362;51.902;7.626;2023-03-26T21:14:30;6.45;;;1.75;;
26774;SDS011;14362;51.902;7.626;2023-03-26T21:18:33;7.55;;;1.20;;
26774;SDS011;14362;51.902;7.626;2023-03-26T21:22:38;14.30;;;1.75;;
26774;SDS011;14362;51.902;7.626;2023-03-26T21:26:46;7.60;;;1.90;;
26774;SDS011;14362;51.902;7.626;2023-03-26T21:30:53;13.15;;;2.55;;
26774;SDS011;14362;51.902;7.626;2023-03-26T21:34:56;13.00;;;2.47;;
26774;SDS011;14362;51.902;7.626;2023-03-26T21:38:59;7.47;;;2.25;;
26774;SDS011;14362;51.902;7.626;2023-03-26T21:43:02;11.82;;;2.13;;
26774;SDS011;14362;51.902;7.626;2023-03-26T21:47:04;20.75;;;3.30;;
26774;SDS011;14362;51.902;7.626;2023-03-26T21:51:08;14.15;;;2.63;;
26774;SDS011;14362;51.902;7.626;2023-03-26T21:55:15;5.43;;;1.80;;
26774;SDS011;14362;51.902;7.626;2023-03-26T21:59:20;9.93;;;3.60;;
26774;SDS011;14362;51.902;7.626;2023-03-26T22:03:31;7.35;;;2.25;;
26774;SDS011;14362;51.902;7.626;2023-03-26T22:07:39;8.15;;;2.13;;
26774;SDS011;14362;51.902;7.626;2023-03-26T22:11:50;9.23;;;1.77;;
26774;SDS011;14362;51.902;7.626;2023-03-26T22:15:52;10.40;;;4.00;;
26774;SDS011;14362;51.902;7.626;2023-03-26T22:19:53;15.02;;;2.33;;
26774;SDS011;14362;51.902;7.626;2023-03-26T22:23:55;9.45;;;1.58;;
26774;SDS011;14362;51.902;7.626;2023-03-26T22:27:58;9.50;;;2.22;;
26774;SDS011;14362;51.902;7.626;2023-03-26T22:31:59;15.38;;;2.08;;
26774;SDS011;14362;51.902;7.626;2023-03-26T22:36:02;6.65;;;1.60;;
26774;SDS011;14362;51.902;7.626;2023-03-26T22:40:05;4.78;;;1.65;;
26774;SDS011;14362;51.902;7.626;2023-03-26T22:44:13;6.95;;;1.40;;
26774;SDS011;14362;51.902;7.626;2023-03-26T22:48:16;7.87;;;1.40;;
26774;SDS011;14362;51.902;7.626;2023-03-26T22:52:17;8.88;;;1.80;;
26774;SDS011;14362;51.902;7.626;2023-03-26T22:56:19;6.57;;;1.83;;
26774;SDS011;14362;51.902;7.626;2023-03-26T23:00:22;7.50;;;1.85;;
26774;SDS011;14362;51.902;7.626;2023-03-26T23:04:25;5.72;;;1.90;;
26774;SDS011;14362;51.902;7.626;2023-03-26T23:08:26;9.27;;;2.63;;
26774;SDS011;14362;51.902;7.626;2023-03-26T23:12:28;9.32;;;2.92;;
26774;SDS011;14362;51.902;7.626;2023-03-26T23:16:31;19.60;;;3.33;;
26774;SDS011;14362;51.902;7.626;2023-03-26T23:20:33;7.32;;;1.58;;
26774;SDS011;14362;51.902;7.626;2023-03-26T23:24:38;6.32;;;1.83;;
26774;SDS011;14362;51.902;7.626;2023-03-26T23:28:39;14.13;;;2.30;;
26774;SDS011;14362;51.902;7.626;2023-03-26T23:32:42;10.00;;;1.48;;
26774;SDS011;14362;51.902;7.626;2023-03-26T23:36:43;13.07;;;1.90;;
26774;SDS011;14362;51.902;7.626;2023-03-26T23:40:45;9.90;;;1.70;;
26774;SDS011;14362;51.902;7.626;2023-03-26T23:44:46;5.53;;;1.92;;
26774;SDS011;14362;51.902;7.626;2023-03-26T23:48:49;11.23;;;1.58;;
26774;SDS011;14362;51.902;7.626;2023-03-26T23:52:51;9.88;;;1.70;;
26774;SDS011;14362;51.902;7.626;2023-03-26T23:56:53;8.68;;;1.65;;
